Time;durP1;ratioP1;P1;durP2;ratioP2;P2;SDS_P1;SDS_P2;PMS_P1;PMS_P2;Temp;Humidity;BMP_temperature;BMP_pressure;BME280_temperature;BME280_humidity;BME280_pressure;Samples;Min_cycle;Max_cycle;Signal;HPM_P1;HPM_P2
2023/05/24 00:02:25;;;;;;;12.70;4.50;;;;;;;;;;5073294;28;20303;-55
2023/05/24 00:04:51;;;;;;;11.13;4.47;;;;;;;;;;5073323;28;20663;-55
2023/05/24 00:07:17;;;;;;;11.03;3.73;;;;;;;;;;5069916;28;20261;-55
2023/05/24 00:09:43;;;;;;;14.77;3.87;;;;;;;;;;5073106;28;20249;-56
2023/05/24 00:12:10;;;;;;;9.63;3.60;;;;;;;;;;5073142;28;20199;-56
2023/05/24 00:14:36;;;;;;;12.88;4.25;;;;;;;;;;5071930;28;20404;-56
2023/05/24 00:17:03;;;;;;;11.75;4.35;;;;;;;;;;5071909;28;20395;-56
2023/05/24 00:19:29;;;;;;;11.90;4.13;;;;;;;;;;5072829;28;20681;-56
2023/05/24 00:21:55;;;;;;;10.80;4.57;;;;;;;;;;5072891;28;20192;-56
2023/05/24 00:24:21;;;;;;;15.67;4.40;;;;;;;;;;5072792;28;20262;-56
2023/05/24 00:26:47;;;;;;;11.93;3.70;;;;;;;;;;5072819;28;20682;-56
2023/05/24 00:29:13;;;;;;;13.55;4.80;;;;;;;;;;5071541;28;20408;-56
2023/05/24 00:31:39;;;;;;;12.52;4.60;;;;;;;;;;5071322;28;20408;-56
2023/05/24 00:34:06;;;;;;;13.83;4.53;;;;;;;;;;5072860;28;20188;-56
2023/05/24 00:36:33;;;;;;;8.93;4.07;;;;;;;;;;5072489;28;20195;-55
2023/05/24 00:38:58;;;;;;;14.70;4.13;;;;;;;;;;5072618;28;20195;-55
2023/05/24 00:41:25;;;;;;;12.65;4.88;;;;;;;;;;5071477;28;20391;-55
2023/05/24 00:43:51;;;;;;;6.90;3.57;;;;;;;;;;5072752;28;20199;-55
2023/05/24 00:46:19;;;;;;;11.83;3.83;;;;;;;;;;5072388;28;20675;-55
2023/05/24 00:48:45;;;;;;;14.03;4.60;;;;;;;;;;5072234;28;20641;-55
2023/05/24 00:51:13;;;;;;;13.70;4.60;;;;;;;;;;5072373;28;20234;-55
2023/05/24 00:53:40;;;;;;;12.40;4.10;;;;;;;;;;5072202;28;20215;-55
2023/05/24 00:56:06;;;;;;;12.30;4.53;;;;;;;;;;5072524;28;20204;-55
2023/05/24 00:58:32;;;;;;;12.17;4.10;;;;;;;;;;5072249;28;20287;-54
2023/05/24 01:00:59;;;;;;;14.53;4.00;;;;;;;;;;5072200;28;20290;-55
2023/05/24 01:03:28;;;;;;;16.97;5.30;;;;;;;;;;5072008;28;20294;-54
2023/05/24 01:05:54;;;;;;;11.80;3.97;;;;;;;;;;5072090;28;20271;-55
2023/05/24 01:08:27;;;;;;;17.70;4.93;;;;;;;;;;5072108;28;20223;-55
2023/05/24 01:10:56;;;;;;;16.67;5.17;;;;;;;;;;5072212;28;20264;-55
2023/05/24 01:13:26;;;;;;;10.80;3.90;;;;;;;;;;5072056;28;20673;-54
2023/05/24 01:15:56;;;;;;;16.80;4.87;;;;;;;;;;5072134;28;20641;-55
2023/05/24 01:18:25;;;;;;;18.37;4.57;;;;;;;;;;5072012;28;20188;-55
2023/05/24 01:20:51;;;;;;;13.73;4.77;;;;;;;;;;5072112;28;20207;-55
2023/05/24 01:23:24;;;;;;;18.40;5.07;;;;;;;;;;5071833;28;20239;-55
2023/05/24 01:26:02;;;;;;;16.37;5.07;;;;;;;;;;5071940;28;20684;-55
2023/05/24 01:28:31;;;;;;;17.30;4.93;;;;;;;;;;5071658;28;20709;-55
2023/05/24 01:30:57;;;;;;;13.57;5.23;;;;;;;;;;5071742;28;20468;-55
2023/05/24 01:33:23;;;;;;;17.63;5.10;;;;;;;;;;5071844;28;20199;-55
2023/05/24 01:35:49;;;;;;;17.47;5.07;;;;;;;;;;5071791;28;20196;-55
2023/05/24 01:38:15;;;;;;;18.73;5.03;;;;;;;;;;5071728;28;20193;-55
2023/05/24 01:40:41;;;;;;;14.60;4.67;;;;;;;;;;5071543;28;20203;-54
2023/05/24 01:43:13;;;;;;;14.73;4.63;;;;;;;;;;5071780;28;20199;-55
2023/05/24 01:45:44;;;;;;;16.67;5.67;;;;;;;;;;5071530;28;20206;-55
2023/05/24 01:48:17;;;;;;;17.03;5.87;;;;;;;;;;5071054;28;20239;-55
2023/05/24 01:50:45;;;;;;;16.00;5.00;;;;;;;;;;5071532;28;20595;-55
2023/05/24 01:53:12;;;;;;;16.27;5.53;;;;;;;;;;5071614;28;20314;-56
2023/05/24 01:55:38;;;;;;;15.73;5.03;;;;;;;;;;5071451;28;20274;-55
2023/05/24 01:58:05;;;;;;;12.80;4.77;;;;;;;;;;5071625;28;20697;-55
2023/05/24 02:00:32;;;;;;;14.70;5.23;;;;;;;;;;5071403;28;20203;-55
2023/05/24 02:03:01;;;;;;;15.80;5.63;;;;;;;;;;5071538;28;20230;-55
2023/05/24 02:05:27;;;;;;;14.83;5.00;;;;;;;;;;5071358;28;20227;-55
2023/05/24 02:07:53;;;;;;;10.73;4.50;;;;;;;;;;5071405;28;20231;-55
2023/05/24 02:10:19;;;;;;;15.77;5.03;;;;;;;;;;5071405;28;20202;-55
2023/05/24 02:12:45;;;;;;;18.00;5.87;;;;;;;;;;5071360;28;20558;-55
2023/05/24 02:15:13;;;;;;;16.30;5.27;;;;;;;;;;5071295;28;20192;-55
2023/05/24 02:17:39;;;;;;;17.63;6.00;;;;;;;;;;5071183;28;20206;-56
2023/05/24 02:20:07;;;;;;;21.05;6.53;;;;;;;;;;5070203;28;20521;-55
2023/05/24 02:22:33;;;;;;;17.20;6.00;;;;;;;;;;5069794;28;20451;-55
2023/05/24 02:24:59;;;;;;;20.83;5.50;;;;;;;;;;5071348;28;20253;-55
2023/05/24 02:27:25;;;;;;;14.00;5.37;;;;;;;;;;5071076;28;20557;-55
2023/05/24 02:29:51;;;;;;;14.47;5.17;;;;;;;;;;5071203;28;20199;-55
2023/05/24 02:32:17;;;;;;;15.83;5.37;;;;;;;;;;5071293;28;20250;-55
2023/05/24 02:34:43;;;;;;;14.77;5.17;;;;;;;;;;5071132;28;20238;-55
2023/05/24 02:37:14;;;;;;;23.77;6.27;;;;;;;;;;5071188;28;20231;-55
2023/05/24 02:39:40;;;;;;;24.67;6.50;;;;;;;;;;5071069;28;20661;-55
2023/05/24 02:42:07;;;;;;;18.20;5.27;;;;;;;;;;5071193;28;20539;-55
2023/05/24 02:44:33;;;;;;;14.47;5.10;;;;;;;;;;5070984;28;20200;-56
2023/05/24 02:46:59;;;;;;;19.00;6.60;;;;;;;;;;5071416;28;20566;-56
2023/05/24 02:49:25;;;;;;;19.23;5.30;;;;;;;;;;5070994;28;20230;-56
2023/05/24 02:51:51;;;;;;;16.87;6.70;;;;;;;;;;5071029;28;20537;-56
2023/05/24 02:54:19;;;;;;;20.47;6.60;;;;;;;;;;5071038;28;20286;-56
2023/05/24 02:56:45;;;;;;;19.10;6.17;;;;;;;;;;5071078;28;20207;-56
2023/05/24 02:59:11;;;;;;;17.40;5.87;;;;;;;;;;5070996;28;20714;-57
2023/05/24 03:01:37;;;;;;;16.57;5.63;;;;;;;;;;5074110;28;20206;-56
2023/05/24 03:04:03;;;;;;;17.23;5.50;;;;;;;;;;5074365;28;20227;-55
2023/05/24 03:06:29;;;;;;;18.48;6.50;;;;;;;;;;5073178;28;20395;-56
2023/05/24 03:08:57;;;;;;;16.77;5.77;;;;;;;;;;5074244;28;20245;-55
2023/05/24 03:11:25;;;;;;;15.47;5.60;;;;;;;;;;5074332;28;20616;-56
2023/05/24 03:13:51;;;;;;;21.13;6.10;;;;;;;;;;5074348;28;20210;-56
2023/05/24 03:16:17;;;;;;;19.63;6.00;;;;;;;;;;5074315;28;20275;-56
2023/05/24 03:18:43;;;;;;;17.50;5.63;;;;;;;;;;5074119;28;20199;-56
2023/05/24 03:21:09;;;;;;;16.60;5.63;;;;;;;;;;5073957;28;20206;-56
2023/05/24 03:23:35;;;;;;;22.03;6.10;;;;;;;;;;5073033;28;20273;-56
2023/05/24 03:26:01;;;;;;;15.13;6.00;;;;;;;;;;5073976;28;20188;-56
2023/05/24 03:28:28;;;;;;;18.40;6.43;;;;;;;;;;5073742;28;20232;-56
2023/05/24 03:30:54;;;;;;;20.57;6.10;;;;;;;;;;5073806;28;20210;-56
2023/05/24 03:33:20;;;;;;;18.90;6.63;;;;;;;;;;5074010;28;20203;-57
2023/05/24 03:35:46;;;;;;;17.93;6.00;;;;;;;;;;5073832;28;20191;-56
2023/05/24 03:38:12;;;;;;;18.97;6.57;;;;;;;;;;5073793;28;20219;-56
2023/05/24 03:40:38;;;;;;;16.70;5.90;;;;;;;;;;5073745;28;20203;-56
2023/05/24 03:43:04;;;;;;;18.07;6.03;;;;;;;;;;5073903;28;20673;-56
2023/05/24 03:45:32;;;;;;;25.10;5.87;;;;;;;;;;5073758;28;20279;-55
2023/05/24 03:47:58;;;;;;;22.17;6.93;;;;;;;;;;5072223;28;20435;-55
2023/05/24 03:50:24;;;;;;;17.20;5.87;;;;;;;;;;5073686;28;20204;-56
2023/05/24 03:52:50;;;;;;;22.03;5.80;;;;;;;;;;5073580;28;20636;-56
2023/05/24 03:55:16;;;;;;;17.35;6.28;;;;;;;;;;5072194;28;20882;-56
2023/05/24 03:57:42;;;;;;;17.23;6.37;;;;;;;;;;5073403;28;20206;-56
2023/05/24 04:00:09;;;;;;;15.20;5.70;;;;;;;;;;5073466;28;20248;-56
2023/05/24 04:02:36;;;;;;;16.10;6.13;;;;;;;;;;5073630;28;20199;-56
2023/05/24 04:05:02;;;;;;;18.70;6.43;;;;;;;;;;5073212;28;20310;-56
2023/05/24 04:07:32;;;;;;;14.70;5.53;;;;;;;;;;5073230;28;20283;-56
2023/05/24 04:09:58;;;;;;;15.63;5.67;;;;;;;;;;5073091;28;20257;-54
2023/05/24 04:12:24;;;;;;;17.27;5.80;;;;;;;;;;5072730;28;20579;-56
2023/05/24 04:14:51;;;;;;;17.30;5.63;;;;;;;;;;5073030;28;20223;-54
2023/05/24 04:17:17;;;;;;;20.43;6.70;;;;;;;;;;5073148;28;20225;-56
2023/05/24 04:19:45;;;;;;;15.30;5.90;;;;;;;;;;5072808;28;20552;-56
2023/05/24 04:22:11;;;;;;;15.70;5.70;;;;;;;;;;5072764;28;20275;-54
2023/05/24 04:24:37;;;;;;;16.60;6.00;;;;;;;;;;5072874;28;20762;-56
2023/05/24 04:27:03;;;;;;;19.20;6.70;;;;;;;;;;5073015;28;20290;-54
2023/05/24 04:29:32;;;;;;;16.03;5.93;;;;;;;;;;5072639;28;20685;-54
2023/05/24 04:32:00;;;;;;;22.63;6.13;;;;;;;;;;5072613;28;20570;-57
2023/05/24 04:34:28;;;;;;;15.53;5.80;;;;;;;;;;5072718;28;20196;-56
2023/05/24 04:36:56;;;;;;;17.90;6.10;;;;;;;;;;5072634;28;20223;-56
2023/05/24 04:39:22;;;;;;;19.40;5.30;;;;;;;;;;5072669;28;20210;-56
2023/05/24 04:41:50;;;;;;;23.07;6.43;;;;;;;;;;5072431;28;20195;-54
2023/05/24 04:44:16;;;;;;;18.90;5.60;;;;;;;;;;5072492;28;20199;-54
2023/05/24 04:46:42;;;;;;;17.17;5.93;;;;;;;;;;5072235;28;20257;-56
2023/05/24 04:49:08;;;;;;;14.90;5.67;;;;;;;;;;5072409;28;20223;-54
2023/05/24 04:51:37;;;;;;;15.23;5.87;;;;;;;;;;5072430;28;20294;-55
2023/05/24 04:54:07;;;;;;;14.87;5.70;;;;;;;;;;5072219;28;20210;-55
2023/05/24 04:56:34;;;;;;;18.80;5.73;;;;;;;;;;5072386;28;20603;-55
2023/05/24 04:59:00;;;;;;;21.57;6.43;;;;;;;;;;5072096;28;20330;-57
2023/05/24 05:01:26;;;;;;;20.53;5.77;;;;;;;;;;5072136;28;20192;-54
2023/05/24 05:03:52;;;;;;;18.20;6.33;;;;;;;;;;5072142;28;20230;-54
2023/05/24 05:06:18;;;;;;;21.23;6.37;;;;;;;;;;5072192;28;20215;-57
2023/05/24 05:08:43;;;;;;;15.10;5.47;;;;;;;;;;5071890;28;20314;-55
2023/05/24 05:11:11;;;;;;;21.47;5.50;;;;;;;;;;5072207;28;20203;-55
2023/05/24 05:13:37;;;;;;;15.87;5.30;;;;;;;;;;5072037;28;20223;-55
2023/05/24 05:16:04;;;;;;;14.33;5.23;;;;;;;;;;5071729;28;20227;-55
2023/05/24 05:18:30;;;;;;;17.27;4.90;;;;;;;;;;5071761;28;20199;-55
2023/05/24 05:20:56;;;;;;;14.93;5.37;;;;;;;;;;5071587;28;20204;-56
2023/05/24 05:23:22;;;;;;;16.03;5.60;;;;;;;;;;5071135;28;20725;-57
2023/05/24 05:25:48;;;;;;;16.23;5.73;;;;;;;;;;5072013;28;20211;-57
2023/05/24 05:28:15;;;;;;;17.70;6.00;;;;;;;;;;5071442;28;20455;-55
2023/05/24 05:30:41;;;;;;;15.20;5.13;;;;;;;;;;5071559;28;20219;-55
2023/05/24 05:33:07;;;;;;;13.53;5.40;;;;;;;;;;5071648;28;20207;-55
2023/05/24 05:35:33;;;;;;;15.40;5.27;;;;;;;;;;5071820;28;20196;-55
2023/05/24 05:37:59;;;;;;;17.33;6.28;;;;;;;;;;5070384;28;20565;-55
2023/05/24 05:40:25;;;;;;;18.90;6.03;;;;;;;;;;5071629;28;20195;-55
2023/05/24 05:42:51;;;;;;;18.80;5.43;;;;;;;;;;5071783;28;20241;-57
2023/05/24 05:45:18;;;;;;;14.57;5.30;;;;;;;;;;5071707;28;20191;-55
2023/05/24 05:47:44;;;;;;;18.17;5.23;;;;;;;;;;5071491;28;20221;-55
2023/05/24 05:50:11;;;;;;;16.53;5.10;;;;;;;;;;5071398;28;20203;-55
2023/05/24 05:52:37;;;;;;;17.83;5.33;;;;;;;;;;5071763;28;20280;-55
2023/05/24 05:55:03;;;;;;;14.47;5.30;;;;;;;;;;5071368;28;20607;-55
2023/05/24 05:57:29;;;;;;;16.17;5.30;;;;;;;;;;5071514;28;20389;-55
2023/05/24 05:59:55;;;;;;;18.23;6.05;;;;;;;;;;5070028;28;20395;-55
2023/05/24 06:02:22;;;;;;;17.27;6.40;;;;;;;;;;5070141;28;20412;-56
2023/05/24 06:04:48;;;;;;;16.00;6.40;;;;;;;;;;5071348;28;20224;-54
2023/05/24 06:07:14;;;;;;;16.80;5.13;;;;;;;;;;5071267;28;20295;-54
2023/05/24 06:09:40;;;;;;;14.53;5.27;;;;;;;;;;5071407;28;20306;-54
2023/05/24 06:12:06;;;;;;;14.83;5.27;;;;;;;;;;5071418;28;20620;-55
2023/05/24 06:14:33;;;;;;;18.47;5.67;;;;;;;;;;5071259;28;20196;-55
2023/05/24 06:16:59;;;;;;;14.83;5.77;;;;;;;;;;5071168;28;20577;-55
2023/05/24 06:19:26;;;;;;;17.07;5.37;;;;;;;;;;5071187;28;20249;-55
2023/05/24 06:21:52;;;;;;;13.87;5.23;;;;;;;;;;5071472;28;20214;-55
2023/05/24 06:24:21;;;;;;;14.97;5.50;;;;;;;;;;5071142;28;20330;-54
2023/05/24 06:26:48;;;;;;;20.37;6.23;;;;;;;;;;5071290;28;20204;-54
2023/05/24 06:29:14;;;;;;;14.77;5.17;;;;;;;;;;5070833;28;20223;-54
2023/05/24 06:31:40;;;;;;;16.50;5.53;;;;;;;;;;5071229;28;20199;-55
2023/05/24 06:34:07;;;;;;;17.77;6.00;;;;;;;;;;5072103;28;20195;-54
2023/05/24 06:36:40;;;;;;;14.70;5.33;;;;;;;;;;5075082;28;20200;-55
2023/05/24 06:39:06;;;;;;;21.67;7.07;;;;;;;;;;5073712;28;20395;-54
2023/05/24 06:41:32;;;;;;;13.90;5.53;;;;;;;;;;5074837;28;20290;-51
2023/05/24 06:43:58;;;;;;;15.53;4.77;;;;;;;;;;5074519;28;20247;-54
2023/05/24 06:46:24;;;;;;;15.47;5.37;;;;;;;;;;5074839;28;20199;-51
2023/05/24 06:48:50;;;;;;;14.87;5.30;;;;;;;;;;5074659;28;20243;-52
2023/05/24 06:51:16;;;;;;;15.03;5.03;;;;;;;;;;5074571;28;20234;-53
2023/05/24 06:53:43;;;;;;;17.57;5.47;;;;;;;;;;5074545;28;20231;-54
2023/05/24 06:56:09;;;;;;;11.30;4.60;;;;;;;;;;5074733;28;20243;-53
2023/05/24 06:58:35;;;;;;;19.47;5.80;;;;;;;;;;5074562;28;20253;-56
2023/05/24 07:01:03;;;;;;;14.77;5.37;;;;;;;;;;5074500;28;20282;-52
2023/05/24 07:03:29;;;;;;;15.90;4.93;;;;;;;;;;5074368;28;20227;-51
2023/05/24 07:05:55;;;;;;;12.97;4.87;;;;;;;;;;5074568;28;20195;-51
2023/05/24 07:08:21;;;;;;;15.33;5.13;;;;;;;;;;5074534;28;20269;-51
2023/05/24 07:10:49;;;;;;;18.13;5.50;;;;;;;;;;5074530;28;20207;-51
2023/05/24 07:13:15;;;;;;;12.37;5.07;;;;;;;;;;5074065;28;20282;-51
2023/05/24 07:15:41;;;;;;;11.20;4.37;;;;;;;;;;5074199;28;20200;-52
2023/05/24 07:18:07;;;;;;;19.30;6.22;;;;;;;;;;5072935;28;20404;-51
2023/05/24 07:20:33;;;;;;;16.50;5.13;;;;;;;;;;5074273;28;20200;-51
2023/05/24 07:23:00;;;;;;;15.83;6.00;;;;;;;;;;5073988;28;20738;-52
2023/05/24 07:25:26;;;;;;;15.47;5.30;;;;;;;;;;5074090;28;20212;-50
2023/05/24 07:27:53;;;;;;;15.40;4.90;;;;;;;;;;5074023;28;20202;-50
2023/05/24 07:30:19;;;;;;;15.53;5.00;;;;;;;;;;5074059;28;20211;-50
2023/05/24 07:32:45;;;;;;;17.67;5.37;;;;;;;;;;5073942;28;20606;-50
2023/05/24 07:35:11;;;;;;;14.63;5.03;;;;;;;;;;5073757;28;20231;-51
2023/05/24 07:37:37;;;;;;;18.80;6.17;;;;;;;;;;5073968;28;20231;-53
2023/05/24 07:40:04;;;;;;;16.63;5.90;;;;;;;;;;5073797;28;20195;-52
2023/05/24 07:42:30;;;;;;;20.23;6.53;;;;;;;;;;5073758;28;20200;-52
2023/05/24 07:44:57;;;;;;;17.13;5.43;;;;;;;;;;5073830;28;20203;-53
2023/05/24 07:47:23;;;;;;;16.47;4.80;;;;;;;;;;5072850;28;20207;-53
2023/05/24 07:49:49;;;;;;;12.57;5.53;;;;;;;;;;5073620;28;20234;-53
2023/05/24 07:52:15;;;;;;;17.37;6.27;;;;;;;;;;5073499;28;20191;-52
2023/05/24 07:54:41;;;;;;;14.33;5.33;;;;;;;;;;5073488;28;20192;-54
2023/05/24 07:57:08;;;;;;;18.80;5.97;;;;;;;;;;5072182;28;20809;-52
2023/05/24 07:59:33;;;;;;;13.73;5.37;;;;;;;;;;5073367;28;20195;-52
2023/05/24 08:02:04;;;;;;;16.00;5.87;;;;;;;;;;5073368;28;20196;-53
2023/05/24 08:04:30;;;;;;;16.03;5.60;;;;;;;;;;5073213;28;20280;-52
2023/05/24 08:06:56;;;;;;;20.80;6.70;;;;;;;;;;5073247;28;20192;-52
2023/05/24 08:09:22;;;;;;;16.60;5.10;;;;;;;;;;5073067;28;20713;-51
2023/05/24 08:11:48;;;;;;;16.63;6.43;;;;;;;;;;5073651;28;20249;-50
2023/05/24 08:14:14;;;;;;;14.73;5.57;;;;;;;;;;5072965;28;20199;-52
2023/05/24 08:16:40;;;;;;;18.90;6.60;;;;;;;;;;5073050;28;20260;-51
2023/05/24 08:19:08;;;;;;;20.97;6.13;;;;;;;;;;5072988;28;20539;-51
2023/05/24 08:21:34;;;;;;;16.90;5.37;;;;;;;;;;5073090;28;20678;-54
2023/05/24 08:24:00;;;;;;;18.03;5.20;;;;;;;;;;5072757;28;20258;-53
2023/05/24 08:26:26;;;;;;;17.58;6.00;;;;;;;;;;5071750;28;20453;-53
2023/05/24 08:28:52;;;;;;;16.83;6.10;;;;;;;;;;5071563;28;20424;-51
2023/05/24 08:31:18;;;;;;;14.13;5.40;;;;;;;;;;5072710;28;20199;-50
2023/05/24 08:33:44;;;;;;;16.13;5.50;;;;;;;;;;5072736;28;20202;-51
2023/05/24 08:36:11;;;;;;;14.93;5.50;;;;;;;;;;5072572;28;20199;-51
2023/05/24 08:38:37;;;;;;;18.87;5.97;;;;;;;;;;5072739;28;20200;-55
2023/05/24 08:41:08;;;;;;;17.87;5.37;;;;;;;;;;5072630;28;20199;-55
2023/05/24 08:43:34;;;;;;;17.00;5.03;;;;;;;;;;5072677;28;20618;-57
2023/05/24 08:46:02;;;;;;;15.33;5.83;;;;;;;;;;5072737;28;20257;-57
2023/05/24 08:48:28;;;;;;;17.23;5.73;;;;;;;;;;5072278;28;20262;-56
2023/05/24 08:50:55;;;;;;;13.87;5.60;;;;;;;;;;5072674;28;20192;-55
2023/05/24 08:56:09;;;;;;;16.77;5.47;;;;;;;;;;5068610;28;20329;-57
2023/05/24 08:58:35;;;;;;;11.40;5.20;;;;;;;;;;5072080;28;20200;-54
2023/05/24 09:01:01;;;;;;;15.37;5.27;;;;;;;;;;5071886;28;20248;-57
2023/05/24 09:03:27;;;;;;;13.03;4.63;;;;;;;;;;5071659;28;20199;-55
2023/05/24 09:05:53;;;;;;;15.32;6.07;;;;;;;;;;5070756;28;20465;-55
2023/05/24 09:08:19;;;;;;;11.90;5.10;;;;;;;;;;5071833;28;20280;-55
2023/05/24 09:10:47;;;;;;;16.15;5.47;;;;;;;;;;5070688;28;20407;-56
2023/05/24 09:13:14;;;;;;;13.50;4.63;;;;;;;;;;5071663;28;20237;-55
2023/05/24 09:15:40;;;;;;;13.83;4.80;;;;;;;;;;5071732;28;20202;-56
2023/05/24 09:18:06;;;;;;;15.00;4.87;;;;;;;;;;5071782;28;20195;-56
2023/05/24 09:20:32;;;;;;;14.83;4.80;;;;;;;;;;5071780;28;20278;-55
2023/05/24 09:22:58;;;;;;;17.93;5.47;;;;;;;;;;5069768;28;20285;-56
2023/05/24 09:25:28;;;;;;;15.73;5.28;;;;;;;;;;5070104;28;20870;-56
2023/05/24 09:27:57;;;;;;;18.70;5.75;;;;;;;;;;5070287;28;20422;-59
2023/05/24 09:30:23;;;;;;;15.18;5.40;;;;;;;;;;5070205;28;20918;-54
2023/05/24 09:32:56;;;;;;;14.65;5.47;;;;;;;;;;5070562;28;20407;-55
2023/05/24 09:35:22;;;;;;;16.02;5.32;;;;;;;;;;5070430;28;20450;-53
2023/05/24 09:37:48;;;;;;;15.88;6.10;;;;;;;;;;5064937;28;20457;-53
2023/05/24 09:40:18;;;;;;;17.33;5.70;;;;;;;;;;5069829;28;20769;-52
2023/05/24 09:42:45;;;;;;;17.30;5.70;;;;;;;;;;5070018;28;20478;-53
2023/05/24 09:45:12;;;;;;;14.93;5.20;;;;;;;;;;5070336;28;20403;-53
2023/05/24 09:47:39;;;;;;;15.60;6.05;;;;;;;;;;5070235;28;20419;-53
2023/05/24 09:50:06;;;;;;;14.37;4.97;;;;;;;;;;5070220;28;20456;-53
2023/05/24 09:52:35;;;;;;;18.08;5.57;;;;;;;;;;5070091;28;20912;-53
2023/05/24 09:55:11;;;;;;;12.10;4.47;;;;;;;;;;5069812;28;20447;-53
2023/05/24 09:57:37;;;;;;;15.40;5.63;;;;;;;;;;5070281;28;20460;-52
2023/05/24 10:00:07;;;;;;;17.13;5.30;;;;;;;;;;5068862;28;20407;-53
2023/05/24 10:02:34;;;;;;;12.50;4.55;;;;;;;;;;5069965;28;20750;-53
2023/05/24 10:05:00;;;;;;;12.15;5.25;;;;;;;;;;5070078;28;20403;-53
2023/05/24 10:07:27;;;;;;;11.95;4.65;;;;;;;;;;5069615;28;20388;-54
2023/05/24 10:09:54;;;;;;;12.40;4.93;;;;;;;;;;5070477;28;20415;-54
2023/05/24 10:12:21;;;;;;;11.52;4.40;;;;;;;;;;5072481;28;20924;-53
2023/05/24 10:14:48;;;;;;;11.23;4.50;;;;;;;;;;5074262;28;20448;-53
2023/05/24 10:17:14;;;;;;;8.10;4.05;;;;;;;;;;5074431;28;20399;-54
2023/05/24 10:19:42;;;;;;;10.30;4.05;;;;;;;;;;5074075;28;20415;-53
2023/05/24 10:22:09;;;;;;;8.90;3.67;;;;;;;;;;5073843;28;20464;-57
2023/05/24 10:24:36;;;;;;;10.75;3.97;;;;;;;;;;5074039;28;20419;-56
2023/05/24 10:27:03;;;;;;;9.20;3.80;;;;;;;;;;5073977;28;20533;-57
2023/05/24 10:29:36;;;;;;;9.38;3.90;;;;;;;;;;5071727;28;20442;-57
2023/05/24 10:32:03;;;;;;;9.40;3.80;;;;;;;;;;5074013;28;20414;-57
2023/05/24 10:34:29;;;;;;;9.00;3.80;;;;;;;;;;5073900;28;20411;-57
2023/05/24 10:36:57;;;;;;;9.17;3.90;;;;;;;;;;5074036;28;20449;-58
2023/05/24 10:39:24;;;;;;;8.43;3.58;;;;;;;;;;5073767;28;20439;-57
2023/05/24 10:41:51;;;;;;;7.83;2.90;;;;;;;;;;5075218;28;20646;-57
2023/05/24 10:44:18;;;;;;;6.47;3.40;;;;;;;;;;5074793;28;20206;-56
2023/05/24 10:47:03;;;;;;;10.67;3.70;;;;;;;;;;5074907;28;20261;-55
2023/05/24 10:49:29;;;;;;;7.17;3.03;;;;;;;;;;5074832;28;20633;-56
2023/05/24 10:52:02;;;;;;;5.47;2.73;;;;;;;;;;5074883;28;20261;-56
2023/05/24 10:54:28;;;;;;;7.87;3.00;;;;;;;;;;5074765;28;20220;-56
2023/05/24 10:56:55;;;;;;;8.10;3.43;;;;;;;;;;5074864;28;20203;-56
2023/05/24 10:59:22;;;;;;;10.07;3.23;;;;;;;;;;5074783;28;20225;-56
2023/05/24 11:01:54;;;;;;;9.00;3.47;;;;;;;;;;5074690;28;20215;-56
2023/05/24 11:04:20;;;;;;;10.70;3.90;;;;;;;;;;5074544;28;20243;-57
2023/05/24 11:06:48;;;;;;;11.17;4.27;;;;;;;;;;5074733;28;20252;-57
2023/05/24 11:09:15;;;;;;;10.43;3.97;;;;;;;;;;5074501;28;20227;-57
2023/05/24 11:11:44;;;;;;;9.20;4.20;;;;;;;;;;5074408;28;20205;-56
2023/05/24 11:14:10;;;;;;;10.30;3.83;;;;;;;;;;5074406;28;20199;-57
2023/05/24 11:16:36;;;;;;;15.90;5.10;;;;;;;;;;5074486;28;20202;-56
2023/05/24 11:19:11;;;;;;;12.20;4.53;;;;;;;;;;5074387;28;20634;-57
2023/05/24 11:21:38;;;;;;;14.80;5.37;;;;;;;;;;5073082;28;20213;-57
2023/05/24 11:24:05;;;;;;;17.57;5.10;;;;;;;;;;5074233;28;20635;-56
2023/05/24 11:26:32;;;;;;;15.27;4.67;;;;;;;;;;5074141;28;20199;-57
2023/05/24 11:29:00;;;;;;;17.90;4.53;;;;;;;;;;5073993;28;20329;-57
2023/05/24 11:31:26;;;;;;;13.23;4.70;;;;;;;;;;5074068;28;20198;-56
2023/05/24 11:33:53;;;;;;;12.77;4.77;;;;;;;;;;5074238;28;20230;-57
2023/05/24 11:36:20;;;;;;;9.37;4.33;;;;;;;;;;5074028;28;20286;-57
2023/05/24 11:38:46;;;;;;;13.33;4.70;;;;;;;;;;5073997;28;20201;-58
2023/05/24 11:41:12;;;;;;;10.03;4.13;;;;;;;;;;5073957;28;20257;-57
2023/05/24 11:43:40;;;;;;;9.83;4.17;;;;;;;;;;5073888;28;20237;-57
2023/05/24 11:46:07;;;;;;;13.67;5.10;;;;;;;;;;5073944;28;20683;-57
2023/05/24 11:48:33;;;;;;;10.27;4.07;;;;;;;;;;5073713;28;20317;-57
2023/05/24 11:51:00;;;;;;;13.50;5.03;;;;;;;;;;5073709;28;20693;-57
2023/05/24 11:53:25;;;;;;;12.93;4.73;;;;;;;;;;5073662;28;20288;-57
2023/05/24 11:55:53;;;;;;;11.60;4.30;;;;;;;;;;5073760;28;20227;-57
2023/05/24 11:58:22;;;;;;;12.50;4.67;;;;;;;;;;5073727;28;20200;-57
2023/05/24 12:00:49;;;;;;;14.47;5.30;;;;;;;;;;5073794;28;20258;-57
2023/05/24 12:03:16;;;;;;;8.57;4.13;;;;;;;;;;5073547;28;20640;-57
2023/05/24 12:05:42;;;;;;;8.80;4.20;;;;;;;;;;5073305;28;20243;-57
2023/05/24 12:08:09;;;;;;;9.50;4.20;;;;;;;;;;5073580;28;20223;-57
2023/05/24 12:10:35;;;;;;;12.17;4.43;;;;;;;;;;5073423;28;20228;-57
2023/05/24 12:13:02;;;;;;;12.13;4.43;;;;;;;;;;5073497;28;20273;-57
2023/05/24 12:15:29;;;;;;;12.50;4.47;;;;;;;;;;5073347;28;20195;-56
2023/05/24 12:17:56;;;;;;;16.07;5.53;;;;;;;;;;5073320;28;20191;-56
2023/05/24 12:20:23;;;;;;;12.53;4.93;;;;;;;;;;5073291;28;20647;-57
2023/05/24 12:22:50;;;;;;;14.17;5.50;;;;;;;;;;5073161;28;20267;-57
2023/05/24 12:25:19;;;;;;;8.30;4.23;;;;;;;;;;5072921;28;20235;-57
2023/05/24 12:27:46;;;;;;;11.70;4.60;;;;;;;;;;5072912;28;20717;-57
2023/05/24 12:30:18;;;;;;;9.83;4.20;;;;;;;;;;5072841;28;20227;-56
2023/05/24 12:32:45;;;;;;;10.40;4.20;;;;;;;;;;5072837;28;20615;-56
2023/05/24 12:35:13;;;;;;;8.70;3.70;;;;;;;;;;5072839;28;20209;-57
2023/05/24 12:37:39;;;;;;;8.23;3.73;;;;;;;;;;5072788;28;20216;-58
2023/05/24 12:40:13;;;;;;;10.70;4.30;;;;;;;;;;5072871;28;20683;-57
2023/05/24 12:42:39;;;;;;;11.40;4.50;;;;;;;;;;5072584;28;20222;-57
2023/05/24 12:45:06;;;;;;;7.47;3.80;;;;;;;;;;5072629;28;20261;-57
2023/05/24 12:47:32;;;;;;;11.33;4.30;;;;;;;;;;5072446;28;20239;-57
2023/05/24 12:49:58;;;;;;;9.80;4.10;;;;;;;;;;5072522;28;20697;-57
2023/05/24 12:52:26;;;;;;;11.67;4.90;;;;;;;;;;5072285;28;20206;-57
2023/05/24 12:54:52;;;;;;;11.50;4.97;;;;;;;;;;5072329;28;20227;-57
2023/05/24 12:57:18;;;;;;;10.80;4.73;;;;;;;;;;5072268;28;20226;-56
2023/05/24 12:59:44;;;;;;;12.23;4.60;;;;;;;;;;5072405;28;20202;-56
2023/05/24 13:02:10;;;;;;;13.63;5.20;;;;;;;;;;5072391;28;20700;-56
2023/05/24 13:04:37;;;;;;;13.50;5.60;;;;;;;;;;5072221;28;20219;-56
2023/05/24 13:07:03;;;;;;;15.93;6.25;;;;;;;;;;5071016;28;20886;-56
2023/05/24 13:09:32;;;;;;;14.33;5.77;;;;;;;;;;5072074;28;20310;-56
2023/05/24 13:11:58;;;;;;;12.63;5.90;;;;;;;;;;5070969;28;20939;-56
2023/05/24 13:14:24;;;;;;;13.63;6.17;;;;;;;;;;5072243;28;20292;-57
2023/05/24 13:16:49;;;;;;;11.77;4.97;;;;;;;;;;5072196;28;20675;-56
2023/05/24 13:19:16;;;;;;;12.13;5.50;;;;;;;;;;5072126;28;20253;-57
2023/05/24 13:21:42;;;;;;;16.07;6.00;;;;;;;;;;5072055;28;20203;-55
2023/05/24 13:24:08;;;;;;;18.20;5.50;;;;;;;;;;5072081;28;20235;-57
2023/05/24 13:26:36;;;;;;;15.60;5.57;;;;;;;;;;5072304;28;20249;-55
2023/05/24 13:29:02;;;;;;;12.77;4.97;;;;;;;;;;5071917;28;20218;-56
2023/05/24 13:31:28;;;;;;;16.83;6.33;;;;;;;;;;5071702;28;20199;-56
2023/05/24 13:33:54;;;;;;;16.60;6.03;;;;;;;;;;5071726;28;20570;-56
2023/05/24 13:36:20;;;;;;;12.87;5.40;;;;;;;;;;5071818;28;20226;-56
2023/05/24 13:38:47;;;;;;;12.30;5.83;;;;;;;;;;5071829;28;20187;-55
2023/05/24 13:41:13;;;;;;;10.70;5.07;;;;;;;;;;5071658;28;20709;-56
2023/05/24 13:43:40;;;;;;;16.47;6.27;;;;;;;;;;5070922;28;20199;-56
2023/05/24 13:46:06;;;;;;;15.00;7.37;;;;;;;;;;5071756;28;20203;-56
2023/05/24 13:48:32;;;;;;;12.87;6.00;;;;;;;;;;5071513;28;20548;-56
2023/05/24 13:50:58;;;;;;;17.37;6.70;;;;;;;;;;5071665;28;20199;-56
2023/05/24 13:53:25;;;;;;;15.77;7.33;;;;;;;;;;5071542;28;20553;-56
2023/05/24 13:55:51;;;;;;;15.50;5.63;;;;;;;;;;5071630;28;20689;-56
2023/05/24 13:58:17;;;;;;;16.63;5.67;;;;;;;;;;5070364;28;20192;-56
2023/05/24 14:00:44;;;;;;;15.80;5.33;;;;;;;;;;5071424;28;20207;-56
2023/05/24 14:03:11;;;;;;;13.20;5.47;;;;;;;;;;5071512;28;20196;-56
2023/05/24 14:05:39;;;;;;;14.67;5.50;;;;;;;;;;5071269;28;20239;-56
2023/05/24 14:08:05;;;;;;;16.50;6.00;;;;;;;;;;5071406;28;20199;-56
2023/05/24 14:10:32;;;;;;;10.90;5.67;;;;;;;;;;5071280;28;20227;-57
2023/05/24 14:12:58;;;;;;;8.53;5.17;;;;;;;;;;5071273;28;20604;-56
2023/05/24 14:15:24;;;;;;;15.17;6.07;;;;;;;;;;5071274;28;20659;-57
2023/05/24 14:17:51;;;;;;;13.47;6.27;;;;;;;;;;5071303;28;20195;-55
2023/05/24 14:20:17;;;;;;;14.40;6.80;;;;;;;;;;5070032;28;20412;-57
2023/05/24 14:22:43;;;;;;;16.27;7.90;;;;;;;;;;5070926;28;20240;-57
2023/05/24 14:25:09;;;;;;;12.83;7.60;;;;;;;;;;5071488;28;20614;-57
2023/05/24 14:27:35;;;;;;;14.70;7.47;;;;;;;;;;5071137;28;20199;-57
2023/05/24 14:30:01;;;;;;;15.50;7.83;;;;;;;;;;5071180;28;20288;-56
2023/05/24 14:32:27;;;;;;;13.77;6.63;;;;;;;;;;5071234;28;20200;-57